WetterOnline ( http://www.wetteronline.de )

Wetter aktuell Westhofen

Aktuelles Wetter: Weinbiet/Pfalz (557m)

6-stündlich | Neueste Meldungen
Ortszeit Temperatur Wetter
Sa, 18.08. 8:00 13.9° C leicht bewölkt
Sa, 18.08. 2:00 15.0° C wolkig
Fr, 17.08. 20:00 20.0° C leichter Regen
Fr, 17.08. 14:00 26.5° C leicht bewölkt
Fr, 17.08. 8:00 21.2° C leicht bewölkt
Fr, 17.08. 2:00 23.0° C wolkig
Do, 16.08. 20:00 25.4° C fast wolkenlos
Do, 16.08. 14:00 27.3° C wolkenlos
Ortszeit Temperatur Wetter
Sa, 18.08. 8:00 13.9° C leicht bewölkt
Sa, 18.08. 7:50 13.9° C leicht bewölkt
Sa, 18.08. 7:40 13.9° C wolkenlos
Sa, 18.08. 7:30 13.8° C leicht bewölkt
Sa, 18.08. 7:20 13.8° C leicht bewölkt
Sa, 18.08. 7:10 13.7° C leicht bewölkt
Sa, 18.08. 7:00 14.1° C wolkig
Sa, 18.08. 6:30 13.6° C leicht bewölkt
Sa, 18.08. 6:00 14.0° C bedeckt
Sa, 18.08. 5:30 13.8° C bedeckt
Sa, 18.08. 5:00 14.9° C bedeckt
Ortszeit Relative Feuchte Sichtweite
Sa, 18.08. 8:00 80% 10 km
Sa, 18.08. 2:00 81% 10 km
Fr, 17.08. 20:00 73% 10 km
Fr, 17.08. 14:00 44% 10 km
Fr, 17.08. 8:00 56% 9 km
Fr, 17.08. 2:00 45% 10 km
Do, 16.08. 20:00 41% 9 km
Do, 16.08. 14:00 39% 10 km
Ortszeit Relative Feuchte Sichtweite
Sa, 18.08. 8:00 80% 10 km
Sa, 18.08. 7:50 80% -
Sa, 18.08. 7:40 79% -
Sa, 18.08. 7:30 80% 10 km
Sa, 18.08. 7:20 80% -
Sa, 18.08. 7:10 81% -
Sa, 18.08. 7:00 79% 9 km
Sa, 18.08. 6:30 85% 10 km
Sa, 18.08. 6:00 85% 10 km
Sa, 18.08. 5:30 89% 10 km
Sa, 18.08. 5:00 82% 10 km
Ortszeit Niederschlagsmenge Niederschlagsart
Sa, 18.08. 8:00 0.5 l/m2 in 12 Std. -
Sa, 18.08. 2:00 0.5 l/m2 in 6 Std. Regen
Fr, 17.08. 20:00 0.1 l/m2 in 12 Std. Regen
Fr, 17.08. 14:00 0.0 l/m2 in 6 Std. -
Fr, 17.08. 8:00 0.0 l/m2 in 12 Std. -
Fr, 17.08. 2:00 0.0 l/m2 in 6 Std. -
Do, 16.08. 20:00 0.0 l/m2 in 12 Std. -
Do, 16.08. 14:00 0.0 l/m2 in 6 Std. -
Ortszeit Niederschlagsmenge Niederschlagsart
Sa, 18.08. 8:00 0.0 l/m2 in 1 Std. -
Sa, 18.08. 7:50 keine Meldung -
Sa, 18.08. 7:40 keine Meldung -
Sa, 18.08. 7:30 0.0 l/m2 in 1 Std. -
Sa, 18.08. 7:20 keine Meldung -
Sa, 18.08. 7:10 keine Meldung -
Sa, 18.08. 7:00 0.0 l/m2 in 1 Std. -
Sa, 18.08. 6:30 0.0 l/m2 in 1 Std. -
Sa, 18.08. 6:00 0.0 l/m2 in 1 Std. -
Sa, 18.08. 5:30 0.0 l/m2 in 1 Std. -
Sa, 18.08. 5:00 0.0 l/m2 in 1 Std. -
Ortszeit Stärke Spitze Richtung
km/h Bft. km/h Grad Sektor
Sa, 18.08. 8:00 15 3 24 330° NW
Sa, 18.08. 2:00 22 4 41 330° NW
Fr, 17.08. 20:00 28 4 37 270° W
Fr, 17.08. 14:00 11 2 25 40° NO
Fr, 17.08. 8:00 6 1 13 360° N
Fr, 17.08. 2:00 7 2 14 120° SO
Do, 16.08. 20:00 11 2 29 160° S
Do, 16.08. 14:00 13 3 22 170° S
Ortszeit Stärke Spitze Richtung
km/h Bft. km/h Grad Sektor
Sa, 18.08. 8:00 15 3 20 330° NW
Sa, 18.08. 7:50 15 3 - 330° NW
Sa, 18.08. 7:40 14 3 - 330° NW
Sa, 18.08. 7:30 17 3 19 320° NW
Sa, 18.08. 7:20 17 3 - 320° NW
Sa, 18.08. 7:10 15 3 - 320° NW
Sa, 18.08. 7:00 18 3 22 350° N
Sa, 18.08. 6:30 14 3 18 320° NW
Sa, 18.08. 6:00 14 3 22 330° NW
Sa, 18.08. 5:30 14 3 22 310° NW
Sa, 18.08. 5:00 17 3 24 330° NW
Ortszeit Untergrenze Bedeckung Gattung
total tief tief mittel hoch
Sa, 18.08. 8:00 10500 m 4/8 0/8 - - -
Sa, 18.08. 2:00 3300 m 8/8 2/8 - - -
Fr, 17.08. 20:00 1440 m 8/8 7/8 - - -
Fr, 17.08. 14:00 8100 m 3/8 0/8 - - -
Fr, 17.08. 8:00 1800 m 4/8 1/8 - - -
Fr, 17.08. 2:00 8700 m 8/8 0/8 - - -
Do, 16.08. 20:00 10500 m 1/8 0/8 - - -
Do, 16.08. 14:00 - 0/8 0/8 - - -
Ortszeit Bedeckungsgrad in Achtel und Wolkenuntergrenze
Sa, 18.08. 8:00 4(10500m)
Sa, 18.08. 7:50 4(10500m)
Sa, 18.08. 7:40 keine Wolken
Sa, 18.08. 7:30 3(9000m)
Sa, 18.08. 7:20 3(9000m)
Sa, 18.08. 7:10 5(9000m)
Sa, 18.08. 7:00 8(9000m) 8(10500m)
Sa, 18.08. 6:30 4(3000m) 6(9000m) 6(10500m)
Sa, 18.08. 6:00 8(2700m)
Sa, 18.08. 5:30 2(1260m) 8(2700m)
Sa, 18.08. 5:00 4(1200m) 8(2700m)
Ortszeit Luftdruck NN (hPa) Tendenz (hPa in 3 Std.)
Sa, 18.08. 8:00 1022 + 0,7
Sa, 18.08. 2:00 1021 + 0,9
Fr, 17.08. 20:00 1017 + 1,4
Fr, 17.08. 14:00 1014 - 0,1
Fr, 17.08. 8:00 1013 + 0,8
Fr, 17.08. 2:00 1013 - 0,3
Do, 16.08. 20:00 1013 - 0,9
Do, 16.08. 14:00 1014 - 1,1
Ortszeit Luftdruck NN (hPa) Tendenz (hPa in 3 Std.)
Sa, 18.08. 8:00 1022 + 0,7
Sa, 18.08. 7:50 1022 keine Meldung
Sa, 18.08. 7:40 1022 keine Meldung
Sa, 18.08. 7:30 1022 + 0,8
Sa, 18.08. 7:20 1022 keine Meldung
Sa, 18.08. 7:10 1022 keine Meldung
Sa, 18.08. 7:00 1022 + 0,7
Sa, 18.08. 6:30 1022 + 0,7
Sa, 18.08. 6:00 1022 + 0,5
Sa, 18.08. 5:30 1021 + 0,3
Sa, 18.08. 5:00 1021 + 0,3
Ortszeit Schneehöhe (cm)
Sa, 18.08. 8:00 -
Sa, 18.08. 2:00 -
Fr, 17.08. 20:00 -
Fr, 17.08. 14:00 -
Fr, 17.08. 8:00 -
Fr, 17.08. 2:00 -
Do, 16.08. 20:00 -
Do, 16.08. 14:00 -
Ortszeit Schneehöhe (cm)
Sa, 18.08. 8:00 -
Sa, 18.08. 7:50 -
Sa, 18.08. 7:40 -
Sa, 18.08. 7:30 -
Sa, 18.08. 7:20 -
Sa, 18.08. 7:10 -
Sa, 18.08. 7:00 -
Sa, 18.08. 6:30 -
Sa, 18.08. 6:00 -
Sa, 18.08. 5:30 -
Sa, 18.08. 5:00 -
Link zu dieser Seite / Seite empfehlen

Das Wetter in ...